createdAt,value
2023-03-31T00:08:27.283Z,7.6
2023-03-31T00:18:28.093Z,7.7
2023-03-31T00:28:28.668Z,7.6
2023-03-31T00:38:29.343Z,7.4
2023-03-31T00:48:30.022Z,7.3
2023-03-31T00:58:30.453Z,7.4
2023-03-31T01:08:31.547Z,7.3
2023-03-31T01:18:31.840Z,7.8
2023-03-31T01:28:32.839Z,8
2023-03-31T01:38:33.604Z,8
2023-03-31T01:48:34.307Z,7.5
2023-03-31T01:58:35.190Z,7.7
2023-03-31T02:08:35.903Z,7.9
2023-03-31T02:18:36.593Z,7.9
2023-03-31T02:28:37.352Z,8.2
2023-03-31T02:38:38.079Z,8.1
2023-03-31T02:48:38.496Z,8.4
2023-03-31T02:58:39.490Z,8.1
2023-03-31T03:08:08.745Z,8.1
2023-03-31T03:18:09.212Z,8.4
2023-03-31T03:28:09.004Z,8.8
2023-03-31T03:38:09.181Z,8.4
2023-03-31T03:48:09.544Z,8.6
2023-03-31T03:58:09.569Z,8.3
2023-03-31T04:08:11.046Z,8.7
2023-03-31T04:18:13.951Z,7.9
2023-03-31T04:28:14.259Z,7.6
2023-03-31T04:38:15.935Z,7.4
2023-03-31T04:48:17.506Z,7.6
2023-03-31T04:58:19.374Z,7.9
2023-03-31T05:08:19.885Z,7.8
2023-03-31T05:18:20.133Z,7.4
2023-03-31T05:28:21.678Z,7.4
2023-03-31T05:38:26.367Z,0.3
2023-03-31T05:48:33.434Z,1.2
2023-03-31T05:58:48.404Z,1.3
2023-03-31T06:08:56.522Z,8.8
2023-03-31T06:18:57.202Z,9.1
2023-03-31T06:29:00.780Z,4.8
2023-03-31T06:39:08.767Z,7.1
2023-03-31T06:49:20.083Z,3.4
2023-03-31T06:59:34.197Z,5.9
2023-03-31T07:09:49.925Z,4.5
2023-03-31T07:20:07.712Z,2.4
2023-03-31T07:30:26.713Z,3.6
2023-03-31T07:40:53.115Z,4.8
2023-03-31T07:51:02.342Z,19
2023-03-31T08:01:18.153Z,23.8
2023-03-31T08:11:32.311Z,17.3
2023-03-31T08:21:45.902Z,12
2023-03-31T08:31:57.440Z,18.4
2023-03-31T08:42:11.803Z,18.2
2023-03-31T08:52:21.232Z,22.9
2023-03-31T09:08:17.392Z,24.1
2023-03-31T09:18:32.120Z,26.2
2023-03-31T09:28:49.017Z,19.1
2023-03-31T09:39:06.580Z,32.8
2023-03-31T09:49:23.467Z,12.3
2023-03-31T09:59:33.249Z,25.9
2023-03-31T10:09:45.379Z,18.9
2023-03-31T10:19:57.906Z,16.3
2023-03-31T10:30:07.102Z,9.9
2023-03-31T10:40:16.876Z,9.1
2023-03-31T10:50:25.364Z,7.2
2023-03-31T11:00:32.127Z,13.7
2023-03-31T11:10:36.552Z,15.3
2023-03-31T11:20:41.471Z,14.5
2023-03-31T11:30:46.669Z,6.4
2023-03-31T11:40:53.511Z,7
2023-03-31T11:51:00.515Z,7.1
2023-03-31T12:01:06.836Z,6.6
2023-03-31T12:11:14.602Z,5.6
2023-03-31T12:21:20.421Z,12.5
2023-03-31T12:31:25.308Z,12.4
2023-03-31T12:41:31.792Z,8.1
2023-03-31T12:51:37.132Z,17.1
2023-03-31T13:01:41.999Z,12.2
2023-03-31T13:11:46.832Z,10
2023-03-31T13:21:52.223Z,16.6
2023-03-31T13:31:52.647Z,18
2023-03-31T13:41:53.831Z,17.8
2023-03-31T13:51:55.691Z,15.1
2023-03-31T14:01:56.516Z,18.3
2023-03-31T14:12:00.195Z,15
2023-03-31T14:22:01.614Z,16.8
2023-03-31T14:32:02.253Z,16.4
2023-03-31T14:42:02.320Z,16.2
2023-03-31T14:52:02.488Z,16
2023-03-31T15:08:09.894Z,16.2
2023-03-31T15:18:11.440Z,16.1
2023-03-31T15:28:10.238Z,16.1
2023-03-31T15:43:26.145Z,15.8
2023-03-31T15:53:25.474Z,7.7
2023-03-31T16:03:24.520Z,14.9
2023-03-31T16:13:23.760Z,13.5
2023-03-31T16:23:23.400Z,14.3
2023-03-31T16:33:23.504Z,14.9
2023-03-31T16:43:23.782Z,12.7
2023-03-31T16:53:24.037Z,8.4
2023-03-31T17:03:24.940Z,11.4
2023-03-31T17:13:24.560Z,13.4
2023-03-31T17:23:24.876Z,12
2023-03-31T17:33:25.521Z,13
2023-03-31T17:43:25.739Z,6.4
2023-03-31T17:53:26.073Z,12.8
2023-03-31T18:03:26.295Z,11.1
2023-03-31T18:13:26.335Z,12.1
2023-03-31T18:23:26.272Z,6.4
2023-03-31T18:33:26.647Z,11
2023-03-31T18:43:26.643Z,11.7
2023-03-31T18:53:26.216Z,10.9
2023-03-31T19:03:26.152Z,12.4
2023-03-31T19:13:26.314Z,11.1
2023-03-31T19:23:25.954Z,5.3
2023-03-31T19:33:26.271Z,11.2
2023-03-31T19:43:27.651Z,10.5
2023-03-31T19:53:26.834Z,11.4
2023-03-31T20:03:27.599Z,11.4
2023-03-31T20:13:27.825Z,10.8
2023-03-31T20:23:27.786Z,10.1
2023-03-31T20:33:27.918Z,9.7
2023-03-31T20:43:27.708Z,11.1
2023-03-31T20:53:28.447Z,9.1
2023-03-31T21:08:09.375Z,10.1
2023-03-31T21:18:09.769Z,10.2
2023-03-31T21:28:09.919Z,10.3
2023-03-31T21:38:10.306Z,9.9
2023-03-31T21:48:10.891Z,10
2023-03-31T21:58:11.229Z,9.5
2023-03-31T22:08:13.114Z,10.1
2023-03-31T22:18:14.840Z,10.3
2023-03-31T22:28:16.669Z,10
2023-03-31T22:38:18.469Z,10
2023-03-31T22:48:20.188Z,10.4
2023-03-31T22:58:22.052Z,10.1
2023-03-31T23:08:22.231Z,10.3
2023-03-31T23:18:22.665Z,10.6
2023-03-31T23:28:23.130Z,10.6
2023-03-31T23:38:23.569Z,10.6
2023-03-31T23:48:24.101Z,10.6
2023-03-31T23:58:24.598Z,10.9
